createdAt,value
2019-02-08T00:00:47.472Z,2.10
2019-02-08T00:03:51.056Z,2.30
2019-02-08T00:06:54.447Z,2.40
2019-02-08T00:09:57.989Z,2.50
2019-02-08T00:13:01.447Z,2.60
2019-02-08T00:16:04.784Z,2.50
2019-02-08T00:19:08.376Z,2.40
2019-02-08T00:22:11.643Z,2.50
2019-02-08T00:25:15.280Z,2.60
2019-02-08T00:28:18.758Z,2.60
2019-02-08T00:31:22.256Z,2.60
2019-02-08T00:34:25.695Z,2.50
2019-02-08T00:37:29.188Z,2.50
2019-02-08T00:40:32.699Z,2.70
2019-02-08T00:43:36.263Z,2.60
2019-02-08T00:46:40.596Z,2.60
2019-02-08T00:49:44.032Z,2.60
2019-02-08T00:52:47.758Z,2.70
2019-02-08T00:55:51.132Z,2.70
2019-02-08T00:58:54.492Z,2.70
2019-02-08T01:01:58.303Z,2.70
2019-02-08T01:05:01.716Z,2.80
2019-02-08T01:08:05.431Z,2.80
2019-02-08T01:11:08.711Z,3.00
2019-02-08T01:14:12.104Z,3.20
2019-02-08T01:17:15.408Z,3.30
2019-02-08T01:20:19.555Z,3.30
2019-02-08T01:23:23.023Z,3.40
2019-02-08T01:26:26.324Z,3.50
2019-02-08T01:29:29.608Z,3.70
2019-02-08T01:32:33.124Z,3.80
2019-02-08T01:35:36.667Z,3.80
2019-02-08T01:38:40.024Z,3.70
2019-02-08T01:41:43.220Z,3.60
2019-02-08T01:44:46.716Z,3.50
2019-02-08T01:48:11.116Z,3.40
2019-02-08T01:51:14.513Z,3.40
2019-02-08T01:54:17.811Z,3.60
2019-02-08T01:57:21.106Z,3.60
2019-02-08T02:00:32.275Z,3.60
2019-02-08T02:03:35.692Z,3.60
2019-02-08T02:06:40.220Z,3.50
2019-02-08T02:09:43.511Z,3.60
2019-02-08T02:12:46.911Z,3.50
2019-02-08T02:15:50.247Z,3.40
2019-02-08T02:18:53.764Z,3.50
2019-02-08T02:21:57.959Z,3.50
2019-02-08T02:25:01.233Z,3.70
2019-02-08T02:28:04.952Z,3.60
2019-02-08T02:31:08.444Z,3.60
2019-02-08T02:34:11.944Z,3.50
2019-02-08T02:37:15.345Z,3.40
2019-02-08T02:40:19.445Z,3.40
2019-02-08T02:43:22.907Z,3.30
2019-02-08T02:46:26.413Z,3.30
2019-02-08T02:49:29.967Z,3.30
2019-02-08T02:52:33.309Z,3.30
2019-02-08T02:55:37.728Z,3.20
2019-02-08T02:58:41.117Z,3.10
2019-02-08T03:01:44.527Z,3.10
2019-02-08T03:04:47.983Z,2.90
2019-02-08T03:07:51.428Z,3.00
2019-02-08T03:10:54.827Z,3.00
2019-02-08T03:13:58.191Z,3.00
2019-02-08T03:17:01.523Z,2.80
2019-02-08T03:20:06.516Z,2.60
2019-02-08T03:23:10.074Z,2.60
2019-02-08T03:26:13.571Z,2.50
2019-02-08T03:29:16.967Z,2.50
2019-02-08T03:32:20.433Z,2.30
2019-02-08T03:35:24.135Z,2.50
2019-02-08T03:38:27.675Z,2.50
2019-02-08T03:41:31.190Z,2.60
2019-02-08T03:44:34.748Z,2.70
2019-02-08T03:47:38.196Z,2.60
2019-02-08T03:50:41.652Z,2.50
2019-02-08T03:53:45.012Z,2.50
2019-02-08T03:56:48.388Z,2.60
2019-02-08T03:59:51.753Z,2.70
2019-02-08T04:02:55.155Z,2.70
2019-02-08T04:05:58.548Z,2.60
2019-02-08T04:09:02.625Z,2.50
2019-02-08T04:12:07.245Z,2.60
2019-02-08T04:15:13.354Z,2.60
2019-02-08T04:18:16.760Z,2.50
2019-02-08T04:21:20.196Z,2.50
2019-02-08T04:24:29.750Z,2.40
2019-02-08T04:27:28.816Z,2.30
2019-02-08T04:30:32.308Z,2.20
2019-02-08T04:33:35.708Z,2.10
2019-02-08T04:36:39.346Z,2.00
2019-02-08T04:39:42.604Z,1.90
2019-02-08T04:42:46.008Z,1.80
2019-02-08T04:45:49.400Z,1.90
2019-02-08T04:48:52.955Z,1.90
2019-02-08T04:51:56.409Z,1.90
2019-02-08T04:54:59.813Z,1.90
2019-02-08T04:58:03.456Z,1.80
2019-02-08T05:01:07.016Z,1.70
2019-02-08T05:04:10.526Z,1.70
2019-02-08T05:07:14.036Z,1.60
2019-02-08T05:10:19.468Z,1.60
2019-02-08T05:13:23.013Z,1.60
2019-02-08T05:16:26.476Z,1.50
2019-02-08T05:19:30.209Z,1.40
2019-02-08T05:22:33.724Z,1.50
2019-02-08T05:25:37.292Z,1.60
2019-02-08T05:28:40.631Z,1.70
2019-02-08T05:31:44.148Z,1.80
2019-02-08T05:34:47.606Z,1.80
2019-02-08T05:37:51.157Z,1.90
2019-02-08T05:40:55.647Z,1.90
2019-02-08T05:43:59.008Z,2.00
2019-02-08T05:47:02.372Z,2.00
2019-02-08T05:50:07.569Z,2.10
2019-02-08T05:53:11.104Z,2.10
2019-02-08T05:56:14.468Z,2.30
2019-02-08T05:59:17.909Z,2.30
2019-02-08T06:02:21.509Z,2.20
2019-02-08T06:05:25.378Z,2.20
2019-02-08T06:08:28.924Z,2.10
2019-02-08T06:11:33.057Z,2.20
2019-02-08T06:14:37.674Z,2.10
2019-02-08T06:17:41.172Z,2.10
2019-02-08T06:20:44.638Z,2.20
2019-02-08T06:23:48.185Z,2.00
2019-02-08T06:26:51.536Z,2.00
2019-02-08T06:29:54.937Z,1.80
2019-02-08T06:32:58.380Z,1.90
2019-02-08T06:36:01.745Z,2.10
2019-02-08T06:39:08.041Z,2.10
2019-02-08T06:42:11.412Z,2.10
2019-02-08T06:45:15.832Z,2.10
2019-02-08T06:48:19.436Z,2.20
2019-02-08T06:51:22.872Z,2.10
2019-02-08T06:54:26.232Z,2.00
2019-02-08T06:57:40.588Z,2.20
2019-02-08T07:01:07.771Z,2.10
2019-02-08T07:04:29.116Z,2.00
2019-02-08T07:07:51.904Z,2.00
2019-02-08T07:11:18.796Z,2.00
2019-02-08T07:14:32.429Z,2.10
2019-02-08T07:17:55.888Z,2.40
2019-02-08T07:21:15.040Z,2.50
2019-02-08T07:24:32.796Z,2.60
2019-02-08T07:27:41.876Z,2.60
2019-02-08T07:31:03.169Z,2.70
2019-02-08T07:34:37.900Z,2.70
2019-02-08T07:37:52.240Z,2.70
2019-02-08T07:41:24.543Z,3.10
2019-02-08T07:45:04.728Z,3.10
2019-02-08T07:48:24.460Z,3.20
2019-02-08T07:51:53.665Z,3.30
2019-02-08T07:55:26.176Z,3.30
2019-02-08T07:58:49.228Z,3.30
2019-02-08T08:02:14.414Z,3.40
2019-02-08T08:05:37.217Z,3.60
2019-02-08T08:08:59.021Z,3.60
2019-02-08T08:12:16.645Z,3.70
2019-02-08T08:15:37.388Z,3.90
2019-02-08T08:18:59.140Z,4.40
2019-02-08T08:22:26.042Z,4.60
2019-02-08T08:25:53.089Z,4.60
2019-02-08T08:29:04.681Z,4.70
2019-02-08T08:32:16.576Z,4.70
2019-02-08T08:36:07.998Z,4.70
2019-02-08T08:39:39.865Z,4.80
2019-02-08T08:43:08.698Z,4.90
2019-02-08T08:46:43.941Z,5.00
2019-02-08T08:50:49.873Z,5.00
2019-02-08T08:54:40.993Z,5.10
2019-02-08T08:58:45.220Z,5.30
2019-02-08T09:02:38.181Z,5.30
2019-02-08T09:06:09.332Z,5.30
2019-02-08T09:10:07.816Z,5.40
2019-02-08T09:13:55.870Z,5.60
2019-02-08T09:17:29.000Z,5.70
2019-02-08T09:21:06.768Z,5.70
2019-02-08T09:24:55.081Z,5.90
2019-02-08T09:28:38.356Z,5.80
2019-02-08T09:32:01.393Z,5.90
2019-02-08T09:35:48.994Z,5.90
2019-02-08T09:39:31.908Z,6.00
2019-02-08T09:43:25.873Z,6.20
2019-02-08T09:47:14.546Z,6.30
2019-02-08T09:51:11.482Z,6.50
2019-02-08T09:54:41.304Z,6.80
2019-02-08T09:58:34.836Z,6.90
2019-02-08T10:02:14.433Z,7.00
2019-02-08T10:05:55.364Z,7.00
2019-02-08T10:09:35.729Z,7.10
2019-02-08T10:13:19.324Z,7.40
2019-02-08T10:17:11.864Z,7.60
2019-02-08T10:20:58.279Z,7.70
2019-02-08T10:24:34.237Z,7.80
2019-02-08T10:28:13.278Z,8.20
2019-02-08T10:32:01.113Z,8.40
2019-02-08T10:35:48.562Z,8.50
2019-02-08T10:39:36.086Z,8.60
2019-02-08T10:43:13.475Z,9.50
2019-02-08T10:47:09.407Z,10.10
2019-02-08T10:50:47.528Z,10.20
2019-02-08T10:54:56.256Z,10.60
2019-02-08T10:58:49.869Z,11.10
2019-02-08T11:02:36.544Z,11.90
2019-02-08T11:06:16.196Z,10.90
2019-02-08T11:09:55.748Z,9.80
2019-02-08T11:13:48.548Z,9.70
2019-02-08T11:17:36.376Z,9.30
2019-02-08T11:20:39.773Z,9.00
2019-02-08T11:23:43.310Z,9.00
2019-02-08T11:26:46.874Z,8.80
2019-02-08T11:29:50.173Z,9.00
2019-02-08T11:32:53.684Z,8.90
2019-02-08T11:35:57.280Z,8.70
2019-02-08T11:39:00.720Z,8.70
2019-02-08T11:42:04.490Z,8.70
2019-02-08T11:45:08.400Z,8.90
2019-02-08T11:48:11.905Z,9.20
2019-02-08T11:51:15.407Z,9.20
2019-02-08T11:54:18.712Z,9.00
2019-02-08T11:57:22.220Z,9.00
2019-02-08T12:00:33.733Z,8.90
2019-02-08T12:03:37.304Z,8.80
2019-02-08T12:06:40.824Z,9.00
2019-02-08T12:09:44.209Z,8.90
2019-02-08T12:12:47.612Z,8.80
2019-02-08T12:15:51.153Z,8.70
2019-02-08T12:18:54.761Z,8.80
2019-02-08T12:21:58.216Z,8.70
2019-02-08T12:25:01.658Z,8.60
2019-02-08T12:28:05.217Z,8.60
2019-02-08T12:31:09.129Z,8.40
2019-02-08T12:34:13.445Z,8.30
2019-02-08T12:37:17.169Z,8.40
2019-02-08T12:40:20.709Z,8.40
2019-02-08T12:43:24.368Z,8.40
2019-02-08T12:46:27.670Z,8.30
2019-02-08T12:49:31.261Z,8.20
2019-02-08T12:52:34.681Z,8.30
2019-02-08T12:55:38.008Z,8.30
2019-02-08T12:58:41.369Z,8.30
2019-02-08T13:01:44.876Z,8.40
2019-02-08T13:04:48.309Z,8.30
2019-02-08T13:07:51.883Z,8.30
2019-02-08T13:10:55.420Z,8.30
2019-02-08T13:13:58.923Z,8.40
2019-02-08T13:17:02.491Z,8.40
2019-02-08T13:20:07.565Z,8.40
2019-02-08T13:23:11.129Z,8.40
2019-02-08T13:26:14.464Z,8.40
2019-02-08T13:29:18.068Z,8.50
2019-02-08T13:32:21.533Z,8.60
2019-02-08T13:35:25.280Z,8.70
2019-02-08T13:38:28.744Z,8.60
2019-02-08T13:41:32.040Z,8.60
2019-02-08T13:44:35.485Z,8.60
2019-02-08T13:47:38.941Z,8.70
2019-02-08T13:50:42.792Z,8.70
2019-02-08T13:53:46.154Z,8.80
2019-02-08T13:56:49.552Z,8.70
2019-02-08T13:59:52.992Z,8.70
2019-02-08T14:02:56.757Z,8.60
2019-02-08T14:06:00.266Z,8.60
2019-02-08T14:09:06.733Z,8.60
2019-02-08T14:12:29.469Z,8.60
2019-02-08T14:15:32.889Z,8.80
2019-02-08T14:18:36.114Z,8.70
2019-02-08T14:21:39.596Z,8.70
2019-02-08T14:24:42.987Z,8.60
2019-02-08T14:27:46.732Z,8.70
2019-02-08T14:30:50.094Z,8.90
2019-02-08T14:33:53.867Z,9.00
2019-02-08T14:36:57.976Z,9.00
2019-02-08T14:40:01.521Z,9.10
2019-02-08T14:43:06.397Z,8.90
2019-02-08T14:46:09.860Z,8.60
2019-02-08T14:49:13.260Z,8.60
2019-02-08T14:52:16.657Z,8.50
2019-02-08T14:55:20.160Z,8.40
2019-02-08T14:58:23.700Z,8.50
2019-02-08T15:01:27.268Z,8.40
2019-02-08T15:04:30.566Z,8.40
2019-02-08T15:07:33.865Z,8.40
2019-02-08T15:10:39.516Z,8.40
2019-02-08T15:13:44.041Z,8.50
2019-02-08T15:16:47.440Z,8.50
2019-02-08T15:19:50.843Z,8.40
2019-02-08T15:22:54.388Z,8.30
2019-02-08T15:25:57.845Z,8.10
2019-02-08T15:29:02.277Z,8.10
2019-02-08T15:32:05.665Z,8.00
2019-02-08T15:35:09.576Z,7.90
2019-02-08T15:38:14.044Z,7.90
2019-02-08T15:41:17.406Z,7.90
2019-02-08T15:44:20.812Z,7.90
2019-02-08T15:47:24.212Z,7.90
2019-02-08T15:50:27.718Z,7.90
2019-02-08T15:53:31.030Z,7.90
2019-02-08T15:56:34.608Z,7.80
2019-02-08T15:59:37.909Z,7.80
2019-02-08T16:02:41.404Z,7.80
2019-02-08T16:05:45.018Z,7.80
2019-02-08T16:08:48.312Z,7.80
2019-02-08T16:11:51.616Z,7.80
2019-02-08T16:14:54.932Z,7.70
2019-02-08T16:17:58.612Z,7.80
2019-02-08T16:21:02.157Z,7.80
2019-02-08T16:24:05.964Z,7.70
2019-02-08T16:27:09.430Z,7.60
2019-02-08T16:30:17.939Z,7.60
2019-02-08T16:33:21.553Z,7.60
2019-02-08T16:36:24.953Z,7.60
2019-02-08T16:39:28.397Z,7.60
2019-02-08T16:42:31.866Z,7.60
2019-02-08T16:45:35.392Z,7.60
2019-02-08T16:48:39.047Z,7.70
2019-02-08T16:51:42.465Z,7.70
2019-02-08T16:54:47.206Z,7.70
2019-02-08T16:57:51.123Z,7.70
2019-02-08T17:00:54.657Z,7.70
2019-02-08T17:03:58.054Z,7.70
2019-02-08T17:07:01.724Z,7.70
2019-02-08T17:10:07.313Z,7.70
2019-02-08T17:13:10.776Z,7.70
2019-02-08T17:16:14.602Z,7.80
2019-02-08T17:19:18.120Z,7.70
2019-02-08T17:22:21.480Z,7.80
2019-02-08T17:25:25.020Z,7.80
2019-02-08T17:28:29.305Z,7.80
2019-02-08T17:31:32.856Z,7.80
2019-02-08T17:34:36.356Z,7.70
2019-02-08T17:37:39.817Z,7.70
2019-02-08T17:40:44.688Z,7.70
2019-02-08T17:43:48.144Z,7.60
2019-02-08T17:46:51.549Z,7.60
2019-02-08T17:49:54.984Z,7.60
2019-02-08T17:52:58.557Z,7.60
2019-02-08T17:56:03.123Z,7.60
2019-02-08T17:59:06.480Z,7.60
2019-02-08T18:02:10.904Z,7.60
2019-02-08T18:05:14.558Z,7.60
2019-02-08T18:08:17.912Z,7.60
2019-02-08T18:11:21.308Z,7.60
2019-02-08T18:14:24.809Z,7.50
2019-02-08T18:17:28.110Z,7.50
2019-02-08T18:20:34.476Z,7.50
2019-02-08T18:23:39.040Z,7.50
2019-02-08T18:26:43.324Z,7.50
2019-02-08T18:29:46.725Z,7.40
2019-02-08T18:32:50.126Z,7.40
2019-02-08T18:35:53.708Z,7.40
2019-02-08T18:38:57.401Z,7.40
2019-02-08T18:42:00.818Z,7.30
2019-02-08T18:45:05.476Z,7.30
2019-02-08T18:48:09.576Z,7.30
2019-02-08T18:51:13.160Z,7.40
2019-02-08T18:54:16.658Z,7.30
2019-02-08T18:57:20.363Z,7.30
2019-02-08T19:00:26.053Z,7.30
2019-02-08T19:03:29.426Z,7.30
2019-02-08T19:06:33.128Z,7.30
2019-02-08T19:09:36.524Z,7.20
2019-02-08T19:12:40.132Z,7.20
2019-02-08T19:15:44.558Z,7.10
2019-02-08T19:18:48.284Z,7.10
2019-02-08T19:21:51.764Z,7.00
2019-02-08T19:24:55.165Z,6.90
2019-02-08T19:28:07.028Z,6.80
2019-02-08T19:31:11.568Z,6.70
2019-02-08T19:34:15.096Z,6.70
2019-02-08T19:37:18.597Z,6.70
2019-02-08T19:40:24.377Z,6.60
2019-02-08T19:43:27.934Z,6.60
2019-02-08T19:46:31.405Z,6.50
2019-02-08T19:49:34.953Z,6.50
2019-02-08T19:52:38.507Z,6.50
2019-02-08T19:55:42.289Z,6.40
2019-02-08T19:58:45.923Z,6.30
2019-02-08T20:01:49.428Z,6.30
2019-02-08T20:04:54.751Z,6.30
2019-02-08T20:07:58.469Z,6.30
2019-02-08T20:11:01.832Z,6.20
2019-02-08T20:14:05.325Z,6.20
2019-02-08T20:17:08.980Z,6.20
2019-02-08T20:20:12.445Z,6.20
2019-02-08T20:23:15.986Z,6.20
2019-02-08T20:26:19.345Z,6.10
2019-02-08T20:29:22.741Z,6.10
2019-02-08T20:32:26.185Z,6.10
2019-02-08T20:35:29.745Z,6.10
2019-02-08T20:38:33.292Z,6.00
2019-02-08T20:41:36.788Z,6.00
2019-02-08T20:44:40.253Z,6.00
2019-02-08T20:47:43.897Z,6.00
2019-02-08T20:50:47.576Z,6.00
2019-02-08T20:53:51.992Z,5.90
2019-02-08T20:56:58.904Z,5.90
2019-02-08T21:00:00.873Z,5.80
2019-02-08T21:03:06.736Z,5.90
2019-02-08T21:06:10.296Z,5.90
2019-02-08T21:09:14.210Z,5.90
2019-02-08T21:12:17.656Z,5.90
2019-02-08T21:15:21.616Z,5.90
2019-02-08T21:18:24.966Z,5.90
2019-02-08T21:21:28.549Z,6.00
2019-02-08T21:24:32.030Z,5.90
2019-02-08T21:27:35.437Z,5.90
2019-02-08T21:30:39.143Z,5.90
2019-02-08T21:33:42.681Z,5.90
2019-02-08T21:36:46.237Z,5.90
2019-02-08T21:39:49.747Z,5.80
2019-02-08T21:42:53.692Z,5.80
2019-02-08T21:45:57.261Z,5.70
2019-02-08T21:49:02.915Z,5.70
2019-02-08T21:52:08.309Z,5.70
2019-02-08T21:55:13.627Z,5.60
2019-02-08T21:58:18.841Z,5.60
2019-02-08T22:01:23.630Z,5.60
2019-02-08T22:04:27.199Z,5.70
2019-02-08T22:07:30.626Z,5.60
2019-02-08T22:10:33.988Z,5.50
2019-02-08T22:13:37.592Z,5.60
2019-02-08T22:16:41.192Z,5.50
2019-02-08T22:19:44.797Z,5.60
2019-02-08T22:22:48.240Z,5.50
2019-02-08T22:25:51.600Z,5.60
2019-02-08T22:28:55.104Z,5.60
2019-02-08T22:31:58.595Z,5.60
2019-02-08T22:35:01.901Z,5.70
2019-02-08T22:38:05.716Z,5.60
2019-02-08T22:41:09.216Z,5.60
2019-02-08T22:44:12.816Z,5.60
2019-02-08T22:47:16.421Z,5.60
2019-02-08T22:50:20.025Z,5.60
2019-02-08T22:53:23.433Z,5.60
2019-02-08T22:56:26.729Z,5.60
2019-02-08T22:59:30.124Z,5.50
2019-02-08T23:02:35.224Z,5.50
2019-02-08T23:05:45.337Z,5.40
2019-02-08T23:08:44.220Z,5.40
2019-02-08T23:11:47.509Z,5.40
2019-02-08T23:14:51.068Z,5.30
2019-02-08T23:17:54.522Z,5.30
2019-02-08T23:20:57.970Z,5.30
2019-02-08T23:24:01.520Z,5.30
2019-02-08T23:27:05.074Z,5.40
2019-02-08T23:30:09.548Z,5.40
2019-02-08T23:33:13.092Z,5.40
2019-02-08T23:36:16.460Z,5.30
2019-02-08T23:39:19.996Z,5.40
2019-02-08T23:42:23.664Z,5.40
2019-02-08T23:45:27.610Z,5.40
2019-02-08T23:48:32.195Z,5.40
2019-02-08T23:51:35.702Z,5.40
2019-02-08T23:54:39.141Z,5.40
2019-02-08T23:57:42.500Z,5.40
